TAF and METAR

Could not understand the following METAR

YBDV 181300Z AUTO 11006KT //// // ////// 24/11 Q1020
No TAF available for Birdsville Airport
Birdsville Airport in Australia at 47m

Latest 5 airports